Time;durP1;ratioP1;P1;durP2;ratioP2;P2;SDS_P1;SDS_P2;PMS_P1;PMS_P2;Temp;Humidity;BMP_temperature;BMP_pressure;BME280_temperature;BME280_humidity;BME280_pressure;Samples;Min_cycle;Max_cycle;Signal;HPM_P1;HPM_P2
2023/07/05 00:01:59;;;;;;;3.65;1.58;;;14.60;99.90;;;;;;4955176;28;20039;-66
2023/07/05 00:04:25;;;;;;;2.15;1.40;;;14.60;99.90;;;;;;4930217;28;20428;-67
2023/07/05 00:06:54;;;;;;;5.32;1.80;;;14.60;99.90;;;;;;4948728;28;20383;-67
2023/07/05 00:09:19;;;;;;;3.97;1.48;;;14.60;99.90;;;;;;4947010;28;20394;-67
2023/07/05 00:11:46;;;;;;;2.78;1.67;;;14.60;99.90;;;;;;4937691;28;20047;-67
2023/07/05 00:14:12;;;;;;;5.15;1.45;;;14.60;99.90;;;;;;4943328;28;20135;-66
2023/07/05 00:16:37;;;;;;;6.32;1.90;;;14.60;99.90;;;;;;4966664;28;20126;-67
2023/07/05 00:19:03;;;;;;;4.97;2.05;;;14.60;99.90;;;;;;4945254;28;20054;-66
2023/07/05 00:21:29;;;;;;;8.07;2.08;;;14.60;99.90;;;;;;4934059;28;20501;-67
2023/07/05 00:23:55;;;;;;;5.22;1.83;;;14.50;99.90;;;;;;4968704;28;20054;-67
2023/07/05 00:26:21;;;;;;;9.00;2.42;;;14.60;99.90;;;;;;4950382;28;20055;-67
2023/07/05 00:28:48;;;;;;;4.55;1.75;;;14.60;99.90;;;;;;4950625;28;20054;-67
2023/07/05 00:31:14;;;;;;;4.07;1.83;;;14.60;99.90;;;;;;4967460;28;20444;-67
2023/07/05 00:33:40;;;;;;;14.82;2.10;;;14.70;99.90;;;;;;4949806;28;20050;-67
2023/07/05 00:36:05;;;;;;;8.48;2.70;;;14.70;99.90;;;;;;4947768;28;20051;-67
2023/07/05 00:38:31;;;;;;;6.68;2.28;;;14.80;99.90;;;;;;4964942;28;20050;-67
2023/07/05 00:40:57;;;;;;;6.43;1.65;;;14.80;99.90;;;;;;4947447;28;20094;-67
2023/07/05 00:43:22;;;;;;;4.63;1.83;;;14.90;99.90;;;;;;4945636;28;20086;-67
2023/07/05 00:45:59;;;;;;;5.38;2.47;;;14.90;99.90;;;;;;4968523;28;20047;-67
2023/07/05 00:48:34;;;;;;;6.30;2.15;;;14.90;99.90;;;;;;4950848;28;20078;-66
2023/07/05 00:51:04;;;;;;;5.93;1.90;;;14.90;99.90;;;;;;4949375;28;20458;-67
2023/07/05 00:53:32;;;;;;;2.97;1.80;;;14.80;99.90;;;;;;4968635;28;20042;-68
2023/07/05 00:56:10;;;;;;;4.32;1.98;;;14.90;99.90;;;;;;4948973;28;20058;-68
2023/07/05 00:58:37;;;;;;;9.00;1.90;;;14.90;99.90;;;;;;4950996;28;20069;-68
2023/07/05 01:01:03;;;;;;;3.75;1.85;;;14.90;99.90;;;;;;4949870;28;20058;-68
2023/07/05 01:03:31;;;;;;;2.58;1.25;;;14.70;99.90;;;;;;4931363;29;20058;-67
2023/07/05 01:05:58;;;;;;;4.38;1.77;;;14.70;99.90;;;;;;4950822;28;20121;-68
2023/07/05 01:08:24;;;;;;;3.67;1.58;;;14.60;99.90;;;;;;4967120;28;20058;-68
2023/07/05 01:10:59;;;;;;;8.02;1.75;;;14.60;99.90;;;;;;4918378;28;20050;-69
2023/07/05 01:13:33;;;;;;;6.90;1.77;;;14.60;99.90;;;;;;4967065;28;20057;-69
2023/07/05 01:16:09;;;;;;;8.77;1.75;;;14.50;99.90;;;;;;4951804;28;20039;-68
2023/07/05 01:18:45;;;;;;;4.93;2.00;;;14.50;99.90;;;;;;4954445;28;20058;-68
2023/07/05 01:21:45;;;;;;;5.63;2.05;;;14.50;99.90;;;;;;4952978;28;20081;-68
2023/07/05 01:24:35;;;;;;;11.15;1.88;;;14.50;99.90;;;;;;4954072;28;20418;-68
2023/07/05 01:27:23;;;;;;;7.28;1.65;;;14.50;99.90;;;;;;4953472;28;20054;-68
2023/07/05 01:29:48;;;;;;;3.42;1.77;;;14.50;99.90;;;;;;4953717;28;20114;-68
2023/07/05 01:32:23;;;;;;;2.90;1.50;;;14.50;99.90;;;;;;4954149;28;20421;-67
2023/07/05 01:34:59;;;;;;;2.60;1.55;;;14.50;99.90;;;;;;4952787;28;20051;-69
2023/07/05 01:37:45;;;;;;;6.00;1.80;;;14.50;99.90;;;;;;4953256;28;20121;-68
2023/07/05 01:40:31;;;;;;;3.90;1.67;;;14.50;99.90;;;;;;4963986;28;20042;-68
2023/07/05 01:43:09;;;;;;;7.82;2.00;;;14.50;99.90;;;;;;4936405;28;20051;-68
2023/07/05 01:45:38;;;;;;;8.98;1.98;;;14.50;99.90;;;;;;4954665;28;20133;-68
2023/07/05 01:48:12;;;;;;;6.82;2.35;;;14.50;99.90;;;;;;4952221;28;20051;-68
2023/07/05 01:50:48;;;;;;;7.53;2.17;;;14.50;99.90;;;;;;4938415;28;20535;-68
2023/07/05 01:53:24;;;;;;;5.72;1.88;;;14.50;99.90;;;;;;4953877;28;20145;-68
2023/07/05 01:56:08;;;;;;;6.40;2.10;;;14.50;99.90;;;;;;4970278;28;20047;-68
2023/07/05 01:58:42;;;;;;;5.43;1.67;;;14.60;99.90;;;;;;4954176;28;20497;-68
2023/07/05 02:01:09;;;;;;;7.43;2.20;;;14.60;99.90;;;;;;4950693;28;20098;-68
2023/07/05 02:03:37;;;;;;;5.57;1.90;;;14.60;99.90;;;;;;4953215;28;20557;-69
2023/07/05 02:06:04;;;;;;;8.02;2.10;;;14.60;99.90;;;;;;4952086;28;20082;-69
2023/07/05 02:08:36;;;;;;;7.78;1.88;;;14.60;99.90;;;;;;4953185;28;20074;-68
2023/07/05 02:11:02;;;;;;;5.93;1.90;;;14.50;99.90;;;;;;4940636;28;20125;-69
2023/07/05 02:13:28;;;;;;;10.52;2.15;;;14.50;99.90;;;;;;4919899;28;20057;-69
2023/07/05 02:15:54;;;;;;;6.28;2.20;;;14.50;99.90;;;;;;4936739;28;20460;-69
2023/07/05 02:18:19;;;;;;;4.20;2.10;;;14.50;99.90;;;;;;4951993;28;20074;-69
2023/07/05 02:20:45;;;;;;;3.92;1.60;;;14.60;99.90;;;;;;4953803;28;20125;-68
2023/07/05 02:23:11;;;;;;;4.65;2.08;;;14.50;99.90;;;;;;4920961;28;20469;-67
2023/07/05 02:25:37;;;;;;;4.22;1.73;;;14.50;99.90;;;;;;4970194;28;20043;-68
2023/07/05 02:28:10;;;;;;;5.40;1.52;;;14.50;99.90;;;;;;4953082;28;20069;-67
2023/07/05 02:30:37;;;;;;;4.97;2.10;;;14.50;99.90;;;;;;4951743;28;20121;-69
2023/07/05 02:33:02;;;;;;;9.02;2.50;;;14.50;99.90;;;;;;4937585;28;20047;-67
2023/07/05 02:35:28;;;;;;;7.57;2.15;;;14.40;99.90;;;;;;4951034;28;20296;-68
2023/07/05 02:37:55;;;;;;;10.48;2.40;;;14.40;99.90;;;;;;4970636;28;20157;-67
2023/07/05 02:40:23;;;;;;;4.88;2.40;;;14.40;99.90;;;;;;4969497;28;20050;-67
2023/07/05 02:42:48;;;;;;;7.57;2.13;;;14.40;99.90;;;;;;4936745;28;20057;-67
2023/07/05 02:45:14;;;;;;;10.48;2.75;;;14.40;99.90;;;;;;4952498;28;20046;-66
2023/07/05 02:47:40;;;;;;;7.70;2.60;;;14.40;99.90;;;;;;4952036;28;20057;-67
2023/07/05 02:50:06;;;;;;;4.55;2.30;;;14.30;99.90;;;;;;4970503;28;20544;-67
2023/07/05 02:52:32;;;;;;;8.93;3.08;;;14.30;99.90;;;;;;4968937;28;20126;-67
2023/07/05 02:54:58;;;;;;;7.55;2.22;;;14.30;99.90;;;;;;4952566;28;20475;-67
2023/07/05 02:57:23;;;;;;;5.35;2.50;;;14.30;99.90;;;;;;4968443;28;20039;-67
2023/07/05 02:59:49;;;;;;;7.95;3.17;;;14.30;99.90;;;;;;4952803;28;20147;-66
2023/07/05 03:02:15;;;;;;;5.72;2.35;;;14.30;99.90;;;;;;4969237;28;20058;-67
2023/07/05 03:04:41;;;;;;;7.03;2.42;;;14.30;99.90;;;;;;4952461;28;20055;-66
2023/07/05 03:07:08;;;;;;;9.95;2.58;;;14.30;99.90;;;;;;4952684;28;20097;-67
2023/07/05 03:09:33;;;;;;;4.30;2.15;;;14.30;99.90;;;;;;4945023;28;20063;-66
2023/07/05 03:11:59;;;;;;;6.30;2.70;;;14.30;99.90;;;;;;4945225;28;20564;-66
2023/07/05 03:14:25;;;;;;;3.90;2.25;;;14.30;99.90;;;;;;4950894;28;20086;-67
2023/07/05 03:16:51;;;;;;;7.22;2.95;;;14.30;99.90;;;;;;4970013;28;20038;-67
2023/07/05 03:19:16;;;;;;;7.25;2.90;;;14.40;99.90;;;;;;4951321;28;20532;-66
2023/07/05 03:21:43;;;;;;;7.03;2.53;;;14.30;99.90;;;;;;4952163;28;20133;-66
2023/07/05 03:24:09;;;;;;;6.53;2.85;;;14.30;99.90;;;;;;4969894;28;20035;-66
2023/07/05 03:26:35;;;;;;;11.32;2.92;;;14.30;99.90;;;;;;4968208;28;20184;-67
2023/07/05 03:29:03;;;;;;;4.85;2.30;;;14.20;99.90;;;;;;4969972;28;20424;-67
2023/07/05 03:31:28;;;;;;;5.68;2.92;;;14.20;99.90;;;;;;4967800;28;20050;-67
2023/07/05 03:33:55;;;;;;;9.23;2.67;;;14.30;99.90;;;;;;4952334;28;20054;-67
2023/07/05 03:36:21;;;;;;;8.00;2.90;;;14.20;99.90;;;;;;4956303;28;20058;-66
2023/07/05 03:38:51;;;;;;;5.78;2.88;;;14.30;99.90;;;;;;4951917;28;20086;-67
2023/07/05 03:41:20;;;;;;;4.35;2.30;;;14.20;99.90;;;;;;4951406;28;20047;-67
2023/07/05 03:43:48;;;;;;;5.75;2.60;;;14.20;99.90;;;;;;4968591;28;20449;-67
2023/07/05 03:46:15;;;;;;;9.82;3.00;;;14.20;99.90;;;;;;4977831;28;20104;-68
2023/07/05 03:48:44;;;;;;;7.72;3.40;;;14.20;99.90;;;;;;4967458;28;20134;-67
2023/07/05 03:51:18;;;;;;;9.48;3.38;;;14.30;99.90;;;;;;4952157;28;20089;-66
2023/07/05 03:53:58;;;;;;;8.77;2.60;;;14.20;99.90;;;;;;4950777;28;20054;-67
2023/07/05 03:56:24;;;;;;;9.95;2.92;;;14.20;99.90;;;;;;4951164;28;20051;-68
2023/07/05 03:58:50;;;;;;;6.82;2.80;;;14.20;99.90;;;;;;4951801;28;20121;-67
2023/07/05 04:01:19;;;;;;;10.10;3.45;;;14.20;99.90;;;;;;4918664;28;20042;-67
2023/07/05 04:03:47;;;;;;;6.35;2.90;;;14.20;99.90;;;;;;4969176;28;20441;-67
2023/07/05 04:06:15;;;;;;;6.20;3.05;;;14.20;99.90;;;;;;4967631;28;20050;-67
2023/07/05 04:08:40;;;;;;;8.77;3.03;;;14.10;99.90;;;;;;4968462;28;20409;-67
2023/07/05 04:11:06;;;;;;;7.57;3.28;;;14.20;99.90;;;;;;4936876;28;20049;-67
2023/07/05 04:13:32;;;;;;;6.90;3.40;;;14.20;99.90;;;;;;4968304;28;20085;-67
2023/07/05 04:16:10;;;;;;;3.40;2.42;;;14.20;99.90;;;;;;4951253;28;20086;-67
2023/07/05 04:18:36;;;;;;;6.25;3.10;;;14.20;99.90;;;;;;4950979;28;20043;-67
2023/07/05 04:21:02;;;;;;;4.38;2.40;;;14.20;99.90;;;;;;4951664;28;20095;-66
2023/07/05 04:23:28;;;;;;;5.90;2.95;;;14.20;99.90;;;;;;4966900;28;20150;-67
2023/07/05 04:26:01;;;;;;;3.85;3.00;;;14.20;99.90;;;;;;4936054;28;20062;-67
2023/07/05 04:28:28;;;;;;;5.43;2.50;;;14.30;99.90;;;;;;4967179;28;20366;-67
2023/07/05 04:30:54;;;;;;;6.15;3.30;;;14.30;99.90;;;;;;4951372;28;20050;-67
2023/07/05 04:33:19;;;;;;;9.95;3.17;;;14.30;99.90;;;;;;4961385;28;20046;-67
2023/07/05 04:35:54;;;;;;;7.28;3.22;;;14.40;99.90;;;;;;4988610;28;20475;-67
2023/07/05 04:38:20;;;;;;;3.92;2.80;;;14.40;99.90;;;;;;4988455;28;20141;-67
2023/07/05 04:40:45;;;;;;;6.05;3.20;;;14.40;99.90;;;;;;4952683;28;20132;-67
2023/07/05 04:43:11;;;;;;;7.97;3.10;;;14.40;99.90;;;;;;4970500;28;20038;-66
2023/07/05 04:45:37;;;;;;;4.90;2.75;;;14.50;99.90;;;;;;4986466;28;20078;-67
2023/07/05 04:48:03;;;;;;;4.88;3.22;;;14.50;99.90;;;;;;4954291;28;20050;-67
2023/07/05 04:50:29;;;;;;;9.35;3.25;;;14.50;99.90;;;;;;4987986;28;20038;-67
2023/07/05 04:52:55;;;;;;;4.50;3.10;;;14.60;99.90;;;;;;4959920;28;20046;-67
2023/07/05 04:55:22;;;;;;;5.82;2.67;;;14.60;99.90;;;;;;4976628;28;20129;-67
2023/07/05 04:57:47;;;;;;;2.83;2.50;;;14.70;99.90;;;;;;4992690;28;20512;-66
2023/07/05 05:00:14;;;;;;;3.33;2.67;;;14.80;99.90;;;;;;4993814;28;20046;-66
2023/07/05 05:02:39;;;;;;;3.03;2.42;;;14.90;99.90;;;;;;4992814;28;20058;-66
2023/07/05 05:05:06;;;;;;;4.25;2.92;;;14.90;99.90;;;;;;4976525;28;20382;-67
2023/07/05 05:07:33;;;;;;;3.38;2.65;;;14.90;99.90;;;;;;4993440;28;20092;-67
2023/07/05 05:10:00;;;;;;;4.35;2.60;;;15.00;99.90;;;;;;4966540;28;20126;-67
2023/07/05 05:12:26;;;;;;;8.75;3.05;;;15.00;99.90;;;;;;4976377;28;20069;-67
2023/07/05 05:14:52;;;;;;;6.30;3.05;;;15.00;99.90;;;;;;4992367;28;20047;-67
2023/07/05 05:17:18;;;;;;;5.22;2.53;;;15.10;99.90;;;;;;4977056;28;20050;-68
2023/07/05 05:19:44;;;;;;;6.80;3.28;;;15.20;99.90;;;;;;4975069;28;20084;-68
2023/07/05 05:22:13;;;;;;;5.15;3.00;;;15.20;99.90;;;;;;4976608;28;20054;-68
2023/07/05 05:24:39;;;;;;;4.37;3.00;;;15.20;99.90;;;;;;4974907;28;20100;-67
2023/07/05 05:27:05;;;;;;;5.25;2.83;;;15.10;99.90;;;;;;4957278;28;20055;-67
2023/07/05 05:29:31;;;;;;;7.18;2.90;;;15.20;99.90;;;;;;4956419;28;20096;-67
2023/07/05 05:31:57;;;;;;;3.38;2.88;;;15.10;99.90;;;;;;4992584;28;20038;-67
2023/07/05 05:34:27;;;;;;;9.18;3.80;;;15.20;99.90;;;;;;4976170;28;20054;-68
2023/07/05 05:36:53;;;;;;;4.22;3.13;;;15.20;99.90;;;;;;4992398;28;20050;-67
2023/07/05 05:39:19;;;;;;;4.50;3.22;;;15.10;99.90;;;;;;4976854;28;20050;-67
2023/07/05 05:41:45;;;;;;;5.65;2.47;;;15.20;99.90;;;;;;4970411;28;20045;-68
2023/07/05 05:44:11;;;;;;;5.15;2.58;;;15.10;99.90;;;;;;4965516;28;20055;-67
2023/07/05 05:46:37;;;;;;;3.42;1.98;;;15.00;99.90;;;;;;4989531;28;20069;-67
2023/07/05 05:49:02;;;;;;;2.45;1.80;;;14.80;99.90;;;;;;4974030;28;20404;-67
2023/07/05 05:51:28;;;;;;;1.88;1.77;;;14.60;99.90;;;;;;4972876;28;20436;-68
2023/07/05 05:53:54;;;;;;;3.13;1.45;;;14.50;99.90;;;;;;4974732;28;20403;-67
2023/07/05 05:56:20;;;;;;;2.88;1.70;;;14.50;99.90;;;;;;4993872;28;20572;-68
2023/07/05 05:58:46;;;;;;;1.75;1.40;;;14.40;99.90;;;;;;4953622;28;20063;-68
2023/07/05 06:01:12;;;;;;;5.70;1.90;;;14.40;99.90;;;;;;4973020;28;20038;-67
2023/07/05 06:03:38;;;;;;;4.10;1.60;;;14.50;99.90;;;;;;4953842;28;20105;-68
2023/07/05 06:06:05;;;;;;;2.20;1.58;;;14.40;99.90;;;;;;4972575;28;20460;-68
2023/07/05 06:08:32;;;;;;;2.08;1.90;;;14.50;99.90;;;;;;4986119;28;20051;-67
2023/07/05 06:10:59;;;;;;;3.05;1.90;;;14.50;99.90;;;;;;4968260;28;20047;-67
2023/07/05 06:13:27;;;;;;;5.13;2.10;;;14.50;99.90;;;;;;4963853;28;20393;-67
2023/07/05 06:16:01;;;;;;;2.03;1.83;;;14.50;99.90;;;;;;4971201;28;20058;-67
2023/07/05 06:18:27;;;;;;;3.00;2.42;;;14.60;99.90;;;;;;4972995;28;21070;-67
2023/07/05 06:20:53;;;;;;;2.83;2.17;;;14.60;99.90;;;;;;4971408;28;20120;-68
2023/07/05 06:23:20;;;;;;;4.28;1.92;;;14.60;99.90;;;;;;4972964;28;20397;-68
2023/07/05 06:25:50;;;;;;;9.55;2.05;;;14.70;99.90;;;;;;4969004;28;20047;-68
2023/07/05 06:28:16;;;;;;;;;;;14.80;99.90;;;;;;4959038;28;20042;-68
2023/07/05 06:30:43;;;;;;;2.05;1.90;;;14.90;99.90;;;;;;4990455;28;19944;-68
2023/07/05 06:33:09;;;;;;;6.32;1.85;;;14.90;99.90;;;;;;4971200;28;20055;-68
2023/07/05 06:35:35;;;;;;;5.25;1.60;;;15.00;99.90;;;;;;4972747;28;20043;-68
2023/07/05 06:38:01;;;;;;;1.98;1.88;;;15.10;99.90;;;;;;4954605;28;20524;-69
2023/07/05 06:40:27;;;;;;;3.33;2.08;;;15.10;99.90;;;;;;4968402;28;20042;-69
2023/07/05 06:42:53;;;;;;;2.92;1.95;;;15.20;99.90;;;;;;4961741;28;20057;-69
2023/07/05 06:45:18;;;;;;;1.60;1.50;;;15.30;99.90;;;;;;4967366;28;20046;-69
2023/07/05 06:47:45;;;;;;;2.53;1.75;;;15.40;99.90;;;;;;4975902;28;20093;-70
2023/07/05 06:50:12;;;;;;;10.02;1.85;;;15.40;99.90;;;;;;4967558;28;20034;-70
2023/07/05 06:52:38;;;;;;;2.97;1.75;;;15.40;99.90;;;;;;4961251;28;20093;-69
2023/07/05 06:55:05;;;;;;;3.00;2.00;;;15.50;99.90;;;;;;4954811;28;20081;-70
2023/07/05 06:57:31;;;;;;;3.25;2.00;;;15.50;99.90;;;;;;4965016;28;20470;-69
2023/07/05 06:59:57;;;;;;;3.15;2.15;;;15.50;99.90;;;;;;4958102;28;20068;-68
2023/07/05 07:02:22;;;;;;;1.80;1.70;;;15.60;99.90;;;;;;4970884;28;20039;-69
2023/07/05 07:04:48;;;;;;;2.88;2.15;;;15.80;99.90;;;;;;4960303;28;20057;-69
2023/07/05 07:07:15;;;;;;;3.60;1.52;;;15.80;99.90;;;;;;4965732;28;20118;-69
2023/07/05 07:09:41;;;;;;;5.28;1.80;;;15.70;99.90;;;;;;4954393;28;20417;-69
2023/07/05 07:12:08;;;;;;;1.80;1.67;;;15.60;99.90;;;;;;4962717;28;20038;-69
2023/07/05 07:14:34;;;;;;;2.67;1.90;;;15.50;99.90;;;;;;4952860;28;20081;-69
2023/07/05 07:17:00;;;;;;;2.60;1.83;;;15.50;99.90;;;;;;4979635;28;20054;-69
2023/07/05 07:19:26;;;;;;;3.63;2.35;;;15.60;99.90;;;;;;4969148;28;20046;-69
2023/07/05 07:21:52;;;;;;;5.38;1.80;;;15.60;99.90;;;;;;4954872;28;20053;-69
2023/07/05 07:24:18;;;;;;;2.35;1.85;;;15.60;99.90;;;;;;4970329;28;20054;-69
2023/07/05 07:26:44;;;;;;;5.68;1.83;;;15.60;99.90;;;;;;4971656;28;20141;-69
2023/07/05 07:29:11;;;;;;;3.13;1.85;;;15.70;99.90;;;;;;4967456;28;20386;-69
2023/07/05 07:31:37;;;;;;;1.70;1.60;;;15.80;99.90;;;;;;4962403;28;20050;-69
2023/07/05 07:34:07;;;;;;;3.75;1.80;;;16.00;99.90;;;;;;4957062;28;20410;-69
2023/07/05 07:36:35;;;;;;;2.80;2.05;;;16.10;99.90;;;;;;4946383;28;20090;-69
2023/07/05 07:39:00;;;;;;;2.33;1.75;;;16.20;99.90;;;;;;4947560;28;20081;-69
2023/07/05 07:41:32;;;;;;;2.35;1.58;;;16.10;99.90;;;;;;4943773;28;20509;-69
2023/07/05 07:44:01;;;;;;;5.72;1.95;;;16.20;99.90;;;;;;4946832;28;20257;-69
2023/07/05 07:46:28;;;;;;;4.05;1.92;;;16.20;99.90;;;;;;4942949;28;20047;-69
2023/07/05 07:48:55;;;;;;;3.75;1.60;;;16.20;99.90;;;;;;4949530;28;20062;-69
2023/07/05 07:51:24;;;;;;;2.20;1.90;;;16.20;99.90;;;;;;4938509;28;20054;-69
2023/07/05 07:53:51;;;;;;;6.15;1.25;;;16.60;99.90;;;;;;4943178;28;20043;-69
2023/07/05 07:56:19;;;;;;;2.75;1.52;;;16.90;99.90;;;;;;4956505;28;20044;-68
2023/07/05 07:58:51;;;;;;;2.45;1.30;;;17.00;99.90;;;;;;4945801;28;20042;-68
2023/07/05 08:01:19;;;;;;;2.22;1.15;;;17.10;97.20;;;;;;4968359;28;20054;-69
2023/07/05 08:03:45;;;;;;;1.27;1.20;;;16.90;94.60;;;;;;4929719;28;20553;-69
2023/07/05 08:06:11;;;;;;;2.35;1.85;;;16.60;95.90;;;;;;4930880;28;20049;-69
2023/07/05 08:08:39;;;;;;;2.60;1.60;;;16.30;99.90;;;;;;4967617;28;20061;-69
2023/07/05 08:11:08;;;;;;;2.08;1.23;;;16.10;99.90;;;;;;4947068;28;20039;-69
2023/07/05 08:13:34;;;;;;;1.52;1.30;;;15.90;99.90;;;;;;4962461;28;20129;-68
2023/07/05 08:16:01;;;;;;;5.60;1.90;;;15.70;99.90;;;;;;4949748;28;20113;-68
2023/07/05 08:18:28;;;;;;;2.35;1.80;;;15.70;99.90;;;;;;4961599;28;20174;-68
2023/07/05 08:20:54;;;;;;;4.95;1.50;;;15.60;99.90;;;;;;4940640;28;20185;-68
2023/07/05 08:23:20;;;;;;;3.00;1.50;;;15.60;99.90;;;;;;4951649;28;20047;-69
2023/07/05 08:25:54;;;;;;;2.28;1.35;;;15.50;99.90;;;;;;4949835;28;20446;-69
2023/07/05 08:28:24;;;;;;;0.77;0.52;;;15.30;99.90;;;;;;4950192;28;20042;-71
2023/07/05 08:30:59;;;;;;;2.38;0.90;;;15.10;99.90;;;;;;4949803;28;20059;-70
2023/07/05 08:33:27;;;;;;;0.63;0.45;;;14.90;99.90;;;;;;4950136;28;20059;-71
2023/07/05 08:36:12;;;;;;;0.50;0.50;;;14.70;99.90;;;;;;4951347;28;20058;-70
2023/07/05 08:38:39;;;;;;;0.70;0.68;;;14.40;99.90;;;;;;4949849;28;20085;-70
2023/07/05 08:41:29;;;;;;;1.58;0.80;;;14.20;99.90;;;;;;4933968;28;20130;-71
2023/07/05 08:44:03;;;;;;;;;;;14.20;99.90;;;;;;4931868;29;20055;-71
2023/07/05 08:46:30;;;;;;;0.52;0.52;;;14.20;99.90;;;;;;4932250;28;19933;-71
2023/07/05 08:49:07;;;;;;;2.38;0.50;;;14.20;99.90;;;;;;4951194;28;20101;-71
2023/07/05 08:51:33;;;;;;;4.85;0.43;;;14.20;99.90;;;;;;4929121;28;20510;-71
2023/07/05 08:54:01;;;;;;;0.30;0.30;;;14.10;99.90;;;;;;4950728;28;20057;-71
2023/07/05 08:56:33;;;;;;;1.00;0.40;;;13.90;99.90;;;;;;4932423;28;20055;-71
2023/07/05 08:59:12;;;;;;;2.58;0.35;;;13.70;99.90;;;;;;4942929;28;20086;-70
2023/07/05 09:01:40;;;;;;;0.35;0.30;;;13.50;99.90;;;;;;4945071;28;20051;-71
2023/07/05 09:04:21;;;;;;;1.38;0.20;;;13.40;99.90;;;;;;4946378;28;20066;-71
2023/07/05 09:06:57;;;;;;;0.73;0.40;;;13.20;99.90;;;;;;4950621;28;20061;-71
2023/07/05 09:09:42;;;;;;;1.52;0.30;;;13.10;99.90;;;;;;4944089;28;20055;-70
2023/07/05 09:12:29;;;;;;;0.30;0.30;;;13.00;99.90;;;;;;4957261;28;20371;-71
2023/07/05 09:15:09;;;;;;;0.45;0.40;;;12.90;99.90;;;;;;4943098;28;20121;-70
2023/07/05 09:17:46;;;;;;;0.70;0.28;;;12.80;99.90;;;;;;4945144;28;20043;-71
2023/07/05 09:20:27;;;;;;;0.30;0.30;;;12.80;99.90;;;;;;4947163;28;20051;-72
2023/07/05 09:22:55;;;;;;;1.13;0.35;;;12.80;99.90;;;;;;4943193;28;20190;-72
2023/07/05 09:25:23;;;;;;;0.30;0.17;;;12.80;99.90;;;;;;4940800;28;20085;-72
2023/07/05 09:27:56;;;;;;;2.72;0.30;;;12.80;99.90;;;;;;4935794;28;20062;-72
2023/07/05 09:30:25;;;;;;;0.05;0.05;;;12.80;99.90;;;;;;4931719;28;20035;-72
2023/07/05 09:33:07;;;;;;;0.57;0.40;;;12.80;99.90;;;;;;4923047;28;20051;-71
2023/07/05 09:35:36;;;;;;;1.80;1.15;;;12.70;99.90;;;;;;4966290;28;20420;-72
2023/07/05 09:38:11;;;;;;;0.85;0.40;;;12.70;99.90;;;;;;4967891;28;20041;-72
2023/07/05 09:40:42;;;;;;;1.58;0.30;;;12.70;99.90;;;;;;4971985;28;20105;-71
2023/07/05 09:43:15;;;;;;;1.60;0.38;;;12.70;99.90;;;;;;4964722;28;20057;-71
2023/07/05 09:45:41;;;;;;;1.45;0.40;;;12.70;99.90;;;;;;4975608;28;20042;-71
2023/07/05 09:48:12;;;;;;;0.47;0.47;;;12.70;99.90;;;;;;4938878;28;20046;-72
2023/07/05 09:50:45;;;;;;;0.68;0.40;;;12.80;99.90;;;;;;4954089;28;20112;-71
2023/07/05 09:53:24;;;;;;;0.70;0.40;;;12.80;99.90;;;;;;4971678;28;20121;-71
2023/07/05 09:56:09;;;;;;;2.38;0.50;;;12.90;99.90;;;;;;4963890;28;20042;-71
2023/07/05 09:58:36;;;;;;;1.80;0.13;;;12.90;99.90;;;;;;4969156;28;20401;-72
2023/07/05 10:01:05;;;;;;;0.73;0.32;;;13.00;99.90;;;;;;4950387;28;20082;-71
2023/07/05 10:03:44;;;;;;;0.40;0.40;;;13.00;99.90;;;;;;4957077;28;20381;-71
2023/07/05 10:06:16;;;;;;;4.50;1.80;;;13.10;99.90;;;;;;4975623;28;20089;-71
2023/07/05 10:08:49;;;;;;;4.38;0.80;;;13.10;99.90;;;;;;4971668;28;20807;-71
2023/07/05 10:11:33;;;;;;;4.22;1.02;;;13.10;99.90;;;;;;4976370;28;20085;-72
2023/07/05 10:14:02;;;;;;;1.38;0.93;;;13.10;99.90;;;;;;4969626;28;20492;-71
2023/07/05 10:16:51;;;;;;;2.60;1.98;;;13.00;99.90;;;;;;4955813;28;20046;-72
2023/07/05 10:19:21;;;;;;;6.78;1.83;;;13.10;99.90;;;;;;4967727;28;20047;-71
2023/07/05 10:21:47;;;;;;;;;;;13.10;99.90;;;;;;4972546;28;20057;-72
2023/07/05 10:24:18;;;;;;;4.78;1.58;;;13.20;99.90;;;;;;4967713;28;19932;-71
2023/07/05 10:26:43;;;;;;;1.70;0.93;;;13.20;99.90;;;;;;4969076;28;20054;-72
2023/07/05 10:29:10;;;;;;;3.97;0.85;;;13.30;99.90;;;;;;4971940;28;20061;-72
2023/07/05 10:31:36;;;;;;;3.47;0.93;;;13.40;99.90;;;;;;4959583;28;20045;-72
2023/07/05 10:34:21;;;;;;;3.67;1.00;;;13.50;99.90;;;;;;4958097;28;20091;-71
2023/07/05 10:36:48;;;;;;;2.65;0.98;;;13.60;99.90;;;;;;4969799;28;20047;-71
2023/07/05 10:39:26;;;;;;;0.10;0.10;;;13.70;99.90;;;;;;4946563;28;20055;-71
2023/07/05 10:41:56;;;;;;;5.97;0.70;;;13.80;99.90;;;;;;4951334;28;20126;-71
2023/07/05 10:44:29;;;;;;;0.80;0.35;;;13.90;99.90;;;;;;4961143;28;20082;-72
2023/07/05 10:46:56;;;;;;;0.52;0.30;;;14.10;99.90;;;;;;4951311;28;20146;-71
2023/07/05 10:49:23;;;;;;;0.40;0.20;;;14.20;99.90;;;;;;4945838;28;20058;-70
2023/07/05 10:52:00;;;;;;;0.40;0.25;;;14.40;99.90;;;;;;4934755;28;20039;-71
2023/07/05 10:54:53;;;;;;;1.35;0.28;;;14.60;99.90;;;;;;4951329;28;20572;-69
2023/07/05 10:57:33;;;;;;;0.95;0.10;;;14.70;99.90;;;;;;4951344;28;20089;-69
2023/07/05 11:00:11;;;;;;;1.13;0.20;;;14.80;99.50;;;;;;4952654;28;20386;-69
2023/07/05 11:02:38;;;;;;;3.65;0.88;;;14.90;99.90;;;;;;4952244;28;20073;-68
2023/07/05 11:05:15;;;;;;;0.70;0.10;;;15.10;99.50;;;;;;4951227;28;20054;-69
2023/07/05 11:07:44;;;;;;;3.33;0.50;;;15.20;99.90;;;;;;4936332;28;20517;-69
2023/07/05 11:10:14;;;;;;;0.45;0.20;;;15.30;98.10;;;;;;4950906;28;20090;-68
2023/07/05 11:12:43;;;;;;;1.17;0.22;;;15.30;99.60;;;;;;4953073;28;20058;-69
2023/07/05 11:15:13;;;;;;;;;;;15.40;99.90;;;;;;4949672;28;20518;-70
2023/07/05 11:17:41;;;;;;;0.52;0.20;;;15.50;99.90;;;;;;4951786;28;19941;-69
2023/07/05 11:20:54;;;;;;;0.52;0.30;;;15.50;99.90;;;;;;4968500;28;20122;-69
2023/07/05 11:23:41;;;;;;;1.63;0.25;;;15.50;98.90;;;;;;4870538;29;20492;-69
2023/07/05 11:26:08;;;;;;;3.45;0.40;;;15.60;99.70;;;;;;4854510;29;20049;-69
2023/07/05 11:28:39;;;;;;;1.10;0.20;;;15.70;95.00;;;;;;4913053;28;20137;-68
2023/07/05 11:31:30;;;;;;;0.43;0.22;;;15.80;93.50;;;;;;4938384;28;20526;-69
2023/07/05 11:34:21;;;;;;;0.10;0.10;;;15.90;91.40;;;;;;4944393;28;20090;-69
2023/07/05 11:36:51;;;;;;;0.43;0.05;;;16.30;90.10;;;;;;4937805;28;20066;-68
2023/07/05 11:39:48;;;;;;;0.45;0.20;;;16.40;86.10;;;;;;4947374;28;20043;-69
2023/07/05 11:42:20;;;;;;;1.17;0.47;;;16.50;80.00;;;;;;4943616;28;20074;-68
2023/07/05 11:45:07;;;;;;;0.73;0.25;;;16.70;79.70;;;;;;4964305;28;20046;-68
2023/07/05 11:47:33;;;;;;;0.75;0.20;;;16.80;78.30;;;;;;4941757;28;20408;-67
2023/07/05 11:50:10;;;;;;;0.50;0.30;;;16.90;77.20;;;;;;4943026;28;20141;-69
2023/07/05 11:52:50;;;;;;;0.77;0.30;;;16.90;79.30;;;;;;4932296;28;20192;-68
2023/07/05 11:55:27;;;;;;;3.25;0.40;;;16.90;72.50;;;;;;4940598;28;20053;-68
2023/07/05 11:58:14;;;;;;;2.40;0.30;;;16.90;70.00;;;;;;4949197;28;20132;-69
2023/07/05 12:00:49;;;;;;;1.48;0.30;;;16.80;80.20;;;;;;4949118;28;20050;-68
2023/07/05 12:03:22;;;;;;;1.10;0.43;;;16.90;75.50;;;;;;4950333;28;20398;-67
2023/07/05 12:06:02;;;;;;;1.00;0.60;;;17.00;81.30;;;;;;4967548;28;20055;-67
2023/07/05 12:08:48;;;;;;;;;;;17.10;75.00;;;;;;4951457;28;20047;-69
2023/07/05 12:11:31;;;;;;;1.05;0.52;;;17.10;73.00;;;;;;4946571;28;19980;-67
2023/07/05 12:14:03;;;;;;;0.50;0.50;;;17.10;78.90;;;;;;4949132;28;20055;-68
2023/07/05 12:16:29;;;;;;;4.35;0.57;;;17.10;81.50;;;;;;4950838;28;20117;-68
2023/07/05 12:18:56;;;;;;;1.38;0.52;;;17.00;78.90;;;;;;4949822;28;20524;-67
2023/07/05 12:21:22;;;;;;;3.55;1.00;;;16.90;82.50;;;;;;4950518;28;20045;-67
2023/07/05 12:23:54;;;;;;;1.02;0.47;;;16.80;85.70;;;;;;4966989;28;20055;-67
2023/07/05 12:26:34;;;;;;;1.88;0.73;;;16.70;86.00;;;;;;4950311;28;20050;-67
2023/07/05 12:29:03;;;;;;;;;;;16.70;87.70;;;;;;4961737;28;20331;-67
2023/07/05 12:31:30;;;;;;;1.58;0.40;;;16.60;83.70;;;;;;4946790;28;19932;-67
2023/07/05 12:34:03;;;;;;;5.97;0.93;;;16.60;85.30;;;;;;4949487;28;20126;-67
2023/07/05 12:36:40;;;;;;;5.97;1.10;;;16.60;95.70;;;;;;4966639;28;20122;-68
2023/07/05 12:39:09;;;;;;;4.47;1.05;;;16.50;99.90;;;;;;4968224;28;20047;-69
2023/07/05 12:41:40;;;;;;;3.40;1.08;;;16.30;99.90;;;;;;4948801;28;20082;-69
2023/07/05 12:44:14;;;;;;;2.83;0.80;;;16.20;99.90;;;;;;4950865;28;20161;-69
2023/07/05 12:46:41;;;;;;;5.53;0.80;;;15.80;99.90;;;;;;4949907;28;20062;-70
2023/07/05 12:49:20;;;;;;;2.08;1.02;;;15.50;99.90;;;;;;4949567;28;20062;-71
2023/07/05 12:51:54;;;;;;;1.65;0.50;;;15.30;99.90;;;;;;4950106;28;20047;-70
2023/07/05 12:54:22;;;;;;;1.92;0.43;;;15.00;99.90;;;;;;4940814;28;20514;-71
2023/07/05 12:56:49;;;;;;;0.93;0.60;;;14.80;99.90;;;;;;4928138;28;20128;-69
2023/07/05 12:59:22;;;;;;;0.40;0.40;;;14.60;99.90;;;;;;4930099;28;20058;-69
2023/07/05 13:01:48;;;;;;;0.80;0.35;;;14.50;99.90;;;;;;4943976;28;20050;-70
2023/07/05 13:04:19;;;;;;;1.08;0.50;;;14.30;99.90;;;;;;4965661;28;20066;-69